createdAt,value
2019-04-07T00:00:10.594Z,97851.95
2019-04-07T00:02:39.546Z,97856.38
2019-04-07T00:05:11.892Z,97855.12
2019-04-07T00:07:39.060Z,97852.56
2019-04-07T00:10:09.926Z,97853.03
2019-04-07T00:12:38.792Z,97860.73
2019-04-07T00:15:08.883Z,97858.14
2019-04-07T00:17:37.631Z,97858.11
2019-04-07T00:20:07.756Z,97861.94
2019-04-07T00:22:36.803Z,97852.42
2019-04-07T00:25:06.281Z,97862.30
2019-04-07T00:27:35.177Z,97856.99
2019-04-07T00:30:04.754Z,97858.63
2019-04-07T00:32:33.809Z,97855.89
2019-04-07T00:35:21.082Z,97860.26
2019-04-07T00:37:39.781Z,97858.57
2019-04-07T00:40:13.125Z,97855.77
2019-04-07T00:42:42.218Z,97859.73
2019-04-07T00:45:12.399Z,97850.98
2019-04-07T00:47:41.496Z,97857.11
2019-04-07T00:50:10.502Z,97855.09
2019-04-07T00:52:39.277Z,97852.31
2019-04-07T00:55:07.992Z,97851.05
2019-04-07T00:57:36.700Z,97845.88
2019-04-07T01:00:16.239Z,97855.33
2019-04-07T01:02:44.201Z,97843.56
2019-04-07T01:05:12.950Z,97847.31
2019-04-07T01:07:42.130Z,97848.45
2019-04-07T01:10:11.360Z,97844.08
2019-04-07T01:12:40.049Z,97842.00
2019-04-07T01:15:09.955Z,97842.39
2019-04-07T01:17:39.219Z,97839.96
2019-04-07T01:20:10.625Z,97831.81
2019-04-07T01:22:39.840Z,97838.52
2019-04-07T01:25:11.263Z,97830.78
2019-04-07T01:27:40.132Z,97834.59
2019-04-07T01:30:09.670Z,97826.08
2019-04-07T01:32:38.785Z,97828.01
2019-04-07T01:35:08.156Z,97822.15
2019-04-07T01:37:36.879Z,97822.59
2019-04-07T01:40:12.448Z,97820.38
2019-04-07T01:42:52.186Z,97816.52
2019-04-07T01:45:37.942Z,97811.95
2019-04-07T01:48:20.396Z,97810.06
2019-04-07T01:50:50.619Z,97805.87
2019-04-07T01:53:24.458Z,97803.98
2019-04-07T01:56:10.769Z,97795.82
2019-04-07T01:58:41.609Z,97794.51
2019-04-07T02:01:26.362Z,97795.45
2019-04-07T02:04:12.749Z,97787.69
2019-04-07T02:06:59.128Z,97787.78
2019-04-07T02:09:47.899Z,97783.37
2019-04-07T02:12:35.131Z,97781.66
2019-04-07T02:15:22.027Z,97776.45
2019-04-07T02:17:52.859Z,97779.71
2019-04-07T02:20:48.799Z,97781.98
2019-04-07T02:23:22.699Z,97786.53
2019-04-07T02:25:55.966Z,97782.22
2019-04-07T02:28:28.972Z,97778.38
2019-04-07T02:30:59.798Z,97776.23
2019-04-07T02:33:33.608Z,97775.52
2019-04-07T02:36:15.764Z,97777.81
2019-04-07T02:38:36.848Z,97773.11
2019-04-07T02:41:08.825Z,97775.84
2019-04-07T02:43:55.685Z,97776.34
2019-04-07T02:46:27.112Z,97774.95
2019-04-07T02:49:00.401Z,97769.76
2019-04-07T02:51:47.822Z,97775.84
2019-04-07T02:54:30.783Z,97775.09
2019-04-07T02:57:01.078Z,97776.92
2019-04-07T02:59:41.075Z,97773.54
2019-04-07T03:02:16.450Z,97773.11
2019-04-07T03:05:10.394Z,97770.48
2019-04-07T03:07:41.291Z,97770.87
2019-04-07T03:10:13.011Z,97766.11
2019-04-07T03:12:43.483Z,97768.38
2019-04-07T03:15:29.690Z,97771.25
2019-04-07T03:18:00.548Z,97767.86
2019-04-07T03:20:37.641Z,97764.81
2019-04-07T03:23:11.409Z,97767.47
2019-04-07T03:25:42.173Z,97763.41
2019-04-07T03:28:16.159Z,97761.56
2019-04-07T03:30:59.543Z,97763.17
2019-04-07T03:33:35.961Z,97761.44
2019-04-07T03:36:23.225Z,97766.42
2019-04-07T03:38:52.467Z,97769.54
2019-04-07T03:41:29.144Z,97765.16
2019-04-07T03:44:18.536Z,97768.72
2019-04-07T03:46:49.463Z,97767.14
2019-04-07T03:49:25.669Z,97759.59
2019-04-07T03:51:56.102Z,97763.59
2019-04-07T03:54:26.413Z,97763.33
2019-04-07T03:57:09.371Z,97757.83
2019-04-07T03:59:40.577Z,97758.72
2019-04-07T04:02:12.679Z,97760.84
2019-04-07T04:04:43.638Z,97760.32
2019-04-07T04:07:28.439Z,97761.55
2019-04-07T04:09:51.891Z,97760.47
2019-04-07T04:12:28.137Z,97758.45
2019-04-07T04:15:04.588Z,97764.58
2019-04-07T04:17:33.347Z,97765.91
2019-04-07T04:20:02.761Z,97761.60
2019-04-07T04:22:32.424Z,97766.83
2019-04-07T04:25:01.367Z,97764.73
2019-04-07T04:27:30.211Z,97763.39
2019-04-07T04:30:00.895Z,97767.45
2019-04-07T04:32:30.807Z,97764.43
2019-04-07T04:34:59.594Z,97771.02
2019-04-07T04:37:40.337Z,97771.95
2019-04-07T04:39:59.688Z,97772.86
2019-04-07T04:42:29.010Z,97771.16
2019-04-07T04:44:58.736Z,97779.75
2019-04-07T04:47:27.629Z,97778.23
2019-04-07T04:49:56.376Z,97785.40
2019-04-07T04:52:25.076Z,97784.64
2019-04-07T04:54:54.857Z,97789.50
2019-04-07T04:57:23.627Z,97788.38
2019-04-07T04:59:52.683Z,97786.34
2019-04-07T05:02:23.567Z,97782.58
2019-04-07T05:04:52.764Z,97777.52
2019-04-07T05:07:22.199Z,97781.30
2019-04-07T05:09:54.115Z,97779.28
2019-04-07T05:12:22.093Z,97778.55
2019-04-07T05:14:50.831Z,97778.58
2019-04-07T05:17:19.742Z,97780.47
2019-04-07T05:19:48.509Z,97787.02
2019-04-07T05:22:17.866Z,97785.34
2019-04-07T05:24:46.735Z,97781.47
2019-04-07T05:27:15.402Z,97780.53
2019-04-07T05:29:44.660Z,97776.50
2019-04-07T05:32:13.462Z,97779.64
2019-04-07T05:34:42.345Z,97777.95
2019-04-07T05:37:11.462Z,97784.02
2019-04-07T05:39:40.396Z,97785.83
2019-04-07T05:42:09.780Z,97782.37
2019-04-07T05:44:38.622Z,97785.84
2019-04-07T05:47:10.838Z,97777.27
2019-04-07T05:49:37.808Z,97783.03
2019-04-07T05:52:09.657Z,97787.09
2019-04-07T05:54:38.351Z,97782.47
2019-04-07T05:57:16.130Z,97784.71
2019-04-07T05:59:45.057Z,97780.40
2019-04-07T06:02:14.388Z,97781.49
2019-04-07T06:04:43.564Z,97786.77
2019-04-07T06:07:13.780Z,97785.19
2019-04-07T06:09:42.687Z,97787.30
2019-04-07T06:12:12.013Z,97783.89
2019-04-07T06:14:41.763Z,97787.80
2019-04-07T06:17:12.053Z,97790.98
2019-04-07T06:19:41.339Z,97791.56
2019-04-07T06:22:17.467Z,97796.43
2019-04-07T06:24:44.846Z,97792.96
2019-04-07T06:27:15.957Z,97788.77
2019-04-07T06:29:44.655Z,97790.08
2019-04-07T06:32:13.440Z,97795.42
2019-04-07T06:34:43.572Z,97798.95
2019-04-07T06:37:13.255Z,97792.49
2019-04-07T06:39:42.230Z,97797.56
2019-04-07T06:42:14.827Z,97803.14
2019-04-07T06:44:43.571Z,97799.37
2019-04-07T06:47:20.329Z,97801.17
2019-04-07T06:49:59.878Z,97808.61
2019-04-07T06:52:34.392Z,97810.30
2019-04-07T06:55:22.694Z,97807.70
2019-04-07T06:57:55.553Z,97809.45
2019-04-07T07:00:42.232Z,97806.86
2019-04-07T07:03:19.112Z,97807.67
2019-04-07T07:05:52.608Z,97805.83
2019-04-07T07:08:25.742Z,97814.55
2019-04-07T07:11:23.117Z,97811.07
2019-04-07T07:13:53.184Z,97809.39
2019-04-07T07:16:23.946Z,97816.73
2019-04-07T07:19:13.028Z,97816.22
2019-04-07T07:21:59.768Z,97824.34
2019-04-07T07:24:29.513Z,97826.61
2019-04-07T07:26:58.375Z,97823.19
2019-04-07T07:29:27.141Z,97823.66
2019-04-07T07:32:00.888Z,97826.72
2019-04-07T07:34:39.873Z,97822.43
2019-04-07T07:37:16.376Z,97824.11
2019-04-07T07:39:46.061Z,97819.86
2019-04-07T07:42:21.381Z,97820.73
2019-04-07T07:44:48.308Z,97815.55
2019-04-07T07:47:20.041Z,97817.70
2019-04-07T07:49:48.259Z,97818.98
2019-04-07T07:52:19.668Z,97815.50
2019-04-07T07:54:47.581Z,97816.80
2019-04-07T07:57:16.312Z,97819.79
2019-04-07T07:59:45.058Z,97822.81
2019-04-07T08:02:17.484Z,97821.19
2019-04-07T08:04:45.015Z,97821.19
2019-04-07T08:07:15.787Z,97819.50
2019-04-07T08:09:44.500Z,97819.52
2019-04-07T08:12:13.180Z,97818.59
2019-04-07T08:14:42.645Z,97813.75
2019-04-07T08:17:12.278Z,97819.41
2019-04-07T08:19:43.942Z,97822.06
2019-04-07T08:22:11.767Z,97828.61
2019-04-07T08:24:40.583Z,97822.08
2019-04-07T08:27:12.326Z,97823.38
2019-04-07T08:29:41.170Z,97821.65
2019-04-07T08:32:09.947Z,97822.97
2019-04-07T08:34:38.657Z,97819.47
2019-04-07T08:37:15.472Z,97814.29
2019-04-07T08:39:44.912Z,97818.59
2019-04-07T08:42:17.507Z,97812.98
2019-04-07T08:44:44.155Z,97813.83
2019-04-07T08:47:18.854Z,97807.63
2019-04-07T08:49:43.349Z,97802.07
2019-04-07T08:52:12.463Z,97808.60
2019-04-07T08:54:42.148Z,97809.92
2019-04-07T08:57:10.977Z,97812.48
2019-04-07T08:59:42.475Z,97814.55
2019-04-07T09:02:10.144Z,97815.84
2019-04-07T09:04:38.916Z,97813.66
2019-04-07T09:07:15.447Z,97806.98
2019-04-07T09:09:47.222Z,97819.06
2019-04-07T09:12:15.279Z,97813.89
2019-04-07T09:14:45.656Z,97814.76
2019-04-07T09:17:23.234Z,97812.11
2019-04-07T09:19:48.148Z,97804.11
2019-04-07T09:22:34.769Z,97807.80
2019-04-07T09:25:11.949Z,97805.81
2019-04-07T09:27:52.213Z,97806.34
2019-04-07T09:30:32.038Z,97802.89
2019-04-07T09:33:12.510Z,97798.02
2019-04-07T09:35:59.360Z,97798.57
2019-04-07T09:38:29.961Z,97775.09
2019-04-07T09:41:03.766Z,97800.21
2019-04-07T09:43:49.557Z,97794.21
2019-04-07T09:46:35.441Z,97796.00
2019-04-07T09:49:13.558Z,97790.31
2019-04-07T09:51:43.979Z,97791.25
2019-04-07T09:54:23.105Z,97786.08
2019-04-07T09:57:08.663Z,97791.27
2019-04-07T09:59:41.740Z,97778.27
2019-04-07T10:02:14.723Z,97776.95
2019-04-07T10:04:45.012Z,97777.81
2019-04-07T10:07:16.479Z,97772.59
2019-04-07T10:10:04.593Z,97776.05
2019-04-07T10:12:31.037Z,97773.50
2019-04-07T10:15:02.199Z,97771.73
2019-04-07T10:17:41.752Z,97772.17
2019-04-07T10:20:14.760Z,97767.00
2019-04-07T10:22:45.030Z,97762.63
2019-04-07T10:25:28.976Z,97757.88
2019-04-07T10:28:02.974Z,97757.88
2019-04-07T10:30:42.119Z,97750.94
2019-04-07T10:33:29.363Z,97746.56
2019-04-07T10:36:11.842Z,97750.05
2019-04-07T10:38:58.480Z,97749.60
2019-04-07T10:41:47.625Z,97743.09
2019-04-07T10:44:35.813Z,97743.55
2019-04-07T10:47:21.259Z,97735.33
2019-04-07T10:50:02.410Z,97743.98
2019-04-07T10:52:43.671Z,97737.46
2019-04-07T10:55:24.115Z,97735.30
2019-04-07T10:57:57.445Z,97734.41
2019-04-07T11:00:43.613Z,97731.84
2019-04-07T11:03:27.338Z,97727.95
2019-04-07T11:08:42.892Z,97731.42
2019-04-07T11:11:13.330Z,97728.83
2019-04-07T11:13:55.851Z,97735.74
2019-04-07T11:16:26.308Z,97727.52
2019-04-07T11:19:14.805Z,97728.38
2019-04-07T11:21:45.103Z,97720.98
2019-04-07T11:24:24.499Z,97720.98
2019-04-07T11:27:00.569Z,97717.01
2019-04-07T11:29:39.771Z,97712.48
2019-04-07T11:32:22.895Z,97707.84
2019-04-07T11:34:55.970Z,97700.77
2019-04-07T11:37:32.845Z,97705.08
2019-04-07T11:40:12.769Z,97696.89
2019-04-07T11:42:43.131Z,97703.85
2019-04-07T11:45:30.324Z,97692.41
2019-04-07T11:48:16.698Z,97698.17
2019-04-07T11:50:50.609Z,97699.83
2019-04-07T11:53:24.177Z,97690.52
2019-04-07T11:56:13.281Z,97688.13
2019-04-07T11:58:50.176Z,97692.20
2019-04-07T12:01:35.620Z,97685.30
2019-04-07T12:04:21.697Z,97686.29
2019-04-07T12:06:56.370Z,97678.31
2019-04-07T12:09:43.676Z,97680.84
2019-04-07T12:12:14.013Z,97679.11
2019-04-07T12:15:00.655Z,97677.45
2019-04-07T12:17:30.994Z,97675.44
2019-04-07T12:20:17.696Z,97676.05
2019-04-07T12:22:50.754Z,97674.75
2019-04-07T12:25:21.120Z,97672.41
2019-04-07T12:27:51.648Z,97669.70
2019-04-07T12:30:33.880Z,97667.53
2019-04-07T12:33:20.127Z,97662.36
2019-04-07T12:35:55.464Z,97660.67
2019-04-07T12:38:43.997Z,97655.35
2019-04-07T12:41:23.357Z,97658.14
2019-04-07T12:43:54.001Z,97659.08
2019-04-07T12:46:30.368Z,97658.43
2019-04-07T12:49:00.626Z,97653.99
2019-04-07T12:51:47.289Z,97656.14
2019-04-07T12:54:23.486Z,97652.03
2019-04-07T12:57:12.181Z,97656.52
2019-04-07T12:59:51.322Z,97652.33
2019-04-07T13:02:24.032Z,97649.68
2019-04-07T13:05:13.142Z,97657.15
2019-04-07T13:07:43.453Z,97654.19
2019-04-07T13:10:17.023Z,97653.25
2019-04-07T13:12:47.838Z,97648.45
2019-04-07T13:15:21.655Z,97650.80
2019-04-07T13:18:03.639Z,97657.05
2019-04-07T13:20:33.307Z,97653.52
2019-04-07T13:23:13.639Z,97646.59
2019-04-07T13:26:00.833Z,97646.12
2019-04-07T13:28:34.053Z,97644.22
2019-04-07T13:31:13.523Z,97645.32
2019-04-07T13:33:50.181Z,97643.31
2019-04-07T13:36:23.600Z,97638.54
2019-04-07T13:39:12.226Z,97639.80
2019-04-07T13:41:47.576Z,97635.12
2019-04-07T13:44:27.162Z,97640.63
2019-04-07T13:47:08.645Z,97636.35
2019-04-07T13:49:57.317Z,97637.52
2019-04-07T13:52:33.334Z,97634.97
2019-04-07T13:55:17.158Z,97633.67
2019-04-07T13:57:50.410Z,97637.92
2019-04-07T14:00:30.727Z,97633.14
2019-04-07T14:03:01.398Z,97631.78
2019-04-07T14:05:32.097Z,97622.97
2019-04-07T14:08:22.334Z,97623.61
2019-04-07T14:11:10.932Z,97622.87
2019-04-07T14:13:57.770Z,97618.59
2019-04-07T14:16:46.502Z,97627.88
2019-04-07T14:19:23.128Z,97629.23
2019-04-07T14:21:53.464Z,97623.06
2019-04-07T14:24:29.584Z,97623.48
2019-04-07T14:27:09.693Z,97620.86
2019-04-07T14:29:55.971Z,97615.19
2019-04-07T14:32:41.603Z,97622.25
2019-04-07T14:35:12.959Z,97617.53
2019-04-07T14:37:59.447Z,97623.11
2019-04-07T14:40:33.458Z,97621.88
2019-04-07T14:43:20.961Z,97623.18
2019-04-07T14:45:54.054Z,97621.06
2019-04-07T14:48:24.720Z,97612.83
2019-04-07T14:51:14.316Z,97618.95
2019-04-07T14:53:48.425Z,97609.37
2019-04-07T14:56:21.932Z,97614.98
2019-04-07T14:59:12.849Z,97609.41
2019-04-07T15:01:54.159Z,97610.76
2019-04-07T15:04:24.797Z,97613.39
2019-04-07T15:07:04.115Z,97609.94
2019-04-07T15:09:33.101Z,97610.81
2019-04-07T15:12:14.718Z,97610.80
2019-04-07T15:14:34.099Z,97609.10
2019-04-07T15:17:03.584Z,97608.66
2019-04-07T15:19:33.924Z,97610.43
2019-04-07T15:22:04.281Z,97608.69
2019-04-07T15:24:35.879Z,97606.92
2019-04-07T15:27:11.265Z,97605.23
2019-04-07T15:29:43.561Z,97610.86
2019-04-07T15:32:11.674Z,97606.51
2019-04-07T15:34:42.244Z,97607.42
2019-04-07T15:37:10.900Z,97607.81
2019-04-07T15:39:39.672Z,97606.53
2019-04-07T15:42:31.503Z,97611.28
2019-04-07T15:44:47.259Z,97603.46
2019-04-07T15:47:18.045Z,97600.81
2019-04-07T15:49:46.833Z,97594.78
2019-04-07T15:52:16.302Z,97596.97
2019-04-07T15:54:45.097Z,97596.05
2019-04-07T15:57:13.872Z,97603.91
2019-04-07T15:59:43.299Z,97604.35
2019-04-07T16:02:13.121Z,97610.03
2019-04-07T16:04:42.480Z,97612.64
2019-04-07T16:07:12.202Z,97608.29
2019-04-07T16:09:50.815Z,97607.02
2019-04-07T16:12:13.470Z,97616.95
2019-04-07T16:14:45.228Z,97614.81
2019-04-07T16:17:13.608Z,97616.13
2019-04-07T16:19:44.991Z,97612.64
2019-04-07T16:22:14.661Z,97613.93
2019-04-07T16:24:44.159Z,97613.52
2019-04-07T16:27:12.889Z,97617.84
2019-04-07T16:29:41.694Z,97613.95
2019-04-07T16:32:11.320Z,97613.50
2019-04-07T16:34:42.171Z,97608.31
2019-04-07T16:37:13.801Z,97607.02
2019-04-07T16:39:42.681Z,97612.63
2019-04-07T16:42:15.556Z,97616.12
2019-04-07T16:44:44.637Z,97613.09
2019-04-07T16:47:21.054Z,97619.58
2019-04-07T16:49:47.109Z,97619.99
2019-04-07T16:52:15.458Z,97622.17
2019-04-07T16:54:44.960Z,97625.63
2019-04-07T16:57:17.349Z,97626.09
2019-04-07T16:59:47.923Z,97620.86
2019-04-07T17:02:19.317Z,97629.98
2019-04-07T17:04:48.389Z,97623.05
2019-04-07T17:07:18.129Z,97626.06
2019-04-07T17:09:48.839Z,97624.34
2019-04-07T17:12:18.489Z,97628.25
2019-04-07T17:14:47.281Z,97623.05
2019-04-07T17:17:20.305Z,97627.38
2019-04-07T17:19:46.488Z,97628.26
2019-04-07T17:22:16.888Z,97629.98
2019-04-07T17:24:45.674Z,97634.31
2019-04-07T17:27:15.064Z,97632.15
2019-04-07T17:29:43.785Z,97638.66
2019-04-07T17:32:13.330Z,97639.95
2019-04-07T17:34:43.560Z,97643.39
2019-04-07T17:37:12.786Z,97641.63
2019-04-07T17:39:46.143Z,97647.27
2019-04-07T17:42:15.650Z,97647.70
2019-04-07T17:47:41.821Z,97651.14
2019-04-07T17:50:20.898Z,97652.44
2019-04-07T17:52:51.370Z,97657.66
2019-04-07T17:55:28.883Z,97656.80
2019-04-07T17:58:01.513Z,97663.30
2019-04-07T18:00:49.222Z,97641.20
2019-04-07T18:03:39.191Z,97661.57
2019-04-07T18:06:26.176Z,97664.16
2019-04-07T18:09:11.993Z,97667.64
2019-04-07T18:12:03.134Z,97662.45
2019-04-07T18:14:30.111Z,97664.58
2019-04-07T18:17:15.136Z,97663.73
2019-04-07T18:19:45.511Z,97670.70
2019-04-07T18:22:23.526Z,97668.11
2019-04-07T18:25:06.965Z,97667.23
2019-04-07T18:27:38.296Z,97664.64
2019-04-07T18:30:16.390Z,97668.53
2019-04-07T18:32:49.778Z,97668.56
2019-04-07T18:35:29.873Z,97667.25
2019-04-07T18:37:58.976Z,97670.28
2019-04-07T18:40:29.624Z,97665.06
2019-04-07T18:42:59.951Z,97668.55
2019-04-07T18:45:45.937Z,97665.08
2019-04-07T18:48:17.449Z,97663.36
2019-04-07T18:53:57.725Z,97659.89
2019-04-07T18:56:35.318Z,97657.27
2019-04-07T18:59:22.142Z,97651.22
2019-04-07T19:02:15.206Z,97659.43
2019-04-07T19:04:50.475Z,97656.86
2019-04-07T19:07:33.239Z,97654.25
2019-04-07T19:10:21.241Z,97655.98
2019-04-07T19:12:49.244Z,97659.90
2019-04-07T19:15:22.326Z,97653.38
2019-04-07T19:18:02.149Z,97653.37
2019-04-07T19:20:34.138Z,97655.10
2019-04-07T19:23:13.659Z,97645.98
2019-04-07T19:25:50.022Z,97645.15
2019-04-07T19:28:26.387Z,97642.11
2019-04-07T19:30:57.127Z,97643.84
2019-04-07T19:33:33.638Z,97645.56
2019-04-07T19:36:18.639Z,97645.59
2019-04-07T19:39:12.429Z,97650.36
2019-04-07T19:41:48.955Z,97643.00
2019-04-07T19:44:37.230Z,97637.34
2019-04-07T19:47:16.819Z,97639.53
2019-04-07T19:50:12.518Z,97635.61
2019-04-07T19:52:49.813Z,97633.44
2019-04-07T19:55:32.487Z,97634.33
2019-04-07T19:58:21.799Z,97636.92
2019-04-07T20:00:55.335Z,97627.82
2019-04-07T20:03:24.351Z,97627.37
2019-04-07T20:06:13.805Z,97630.85
2019-04-07T20:09:05.217Z,97635.18
2019-04-07T20:11:48.723Z,97633.03
2019-04-07T20:14:28.438Z,97631.28
2019-04-07T20:17:02.031Z,97628.23
2019-04-07T20:19:41.155Z,97623.91
2019-04-07T20:22:27.190Z,97627.80
2019-04-07T20:25:17.517Z,97627.36
2019-04-07T20:27:49.067Z,97617.86
2019-04-07T20:30:22.198Z,97616.12
2019-04-07T20:33:02.027Z,97619.55
2019-04-07T20:35:48.897Z,97618.28
2019-04-07T20:38:35.817Z,97620.44
2019-04-07T20:41:15.470Z,97613.88
2019-04-07T20:43:45.177Z,97613.01
2019-04-07T20:46:21.646Z,97611.29
2019-04-07T20:48:56.456Z,97617.78
2019-04-07T20:51:33.228Z,97616.03
2019-04-07T20:54:14.019Z,97615.18
2019-04-07T20:56:56.464Z,97621.30
2019-04-07T20:59:50.453Z,97619.16
2019-04-07T21:02:20.827Z,97616.97
2019-04-07T21:05:02.793Z,97617.42
2019-04-07T21:07:49.614Z,97618.70
2019-04-07T21:10:19.967Z,97614.83
2019-04-07T21:12:50.667Z,97612.65
2019-04-07T21:15:30.540Z,97603.13
2019-04-07T21:18:14.736Z,97607.87
2019-04-07T21:20:45.348Z,97605.28
2019-04-07T21:23:18.109Z,97607.90
2019-04-07T21:25:54.083Z,97607.90
2019-04-07T21:28:25.488Z,97605.70
2019-04-07T21:31:17.312Z,97600.95
2019-04-07T21:34:02.473Z,97598.74
2019-04-07T21:36:48.838Z,97593.97
2019-04-07T21:39:29.516Z,97591.38
2019-04-07T21:41:56.961Z,97589.20
2019-04-07T21:44:36.075Z,97592.66
2019-04-07T21:47:16.114Z,97584.89
2019-04-07T21:49:46.793Z,97582.70
2019-04-07T21:52:29.251Z,97582.27
2019-04-07T21:55:03.329Z,97581.45
2019-04-07T21:57:34.304Z,97580.58
2019-04-07T22:00:16.787Z,97577.13
2019-04-07T22:02:55.957Z,97571.50
2019-04-07T22:05:27.107Z,97573.22
2019-04-07T22:07:57.602Z,97578.44
2019-04-07T22:10:26.353Z,97578.00
2019-04-07T22:13:00.197Z,97574.09
2019-04-07T22:15:25.502Z,97567.15
2019-04-07T22:17:54.286Z,97571.50
2019-04-07T22:20:23.024Z,97572.36
2019-04-07T22:22:51.789Z,97564.98
2019-04-07T22:25:31.378Z,97567.17
2019-04-07T22:28:00.340Z,97555.47
2019-04-07T22:30:29.032Z,97568.04
2019-04-07T22:32:57.852Z,97571.05
2019-04-07T22:35:26.655Z,97567.58
2019-04-07T22:37:55.350Z,97566.28
2019-04-07T22:40:25.308Z,97569.33
2019-04-07T22:42:54.236Z,97568.87
2019-04-07T22:45:27.893Z,97561.94
2019-04-07T22:47:53.731Z,97556.74
2019-04-07T22:50:23.343Z,97554.16
2019-04-07T22:52:52.448Z,97552.84
2019-04-07T22:55:22.809Z,97548.52
2019-04-07T22:57:51.658Z,97551.54
2019-04-07T23:00:23.241Z,97544.19
2019-04-07T23:02:52.074Z,97540.72
2019-04-07T23:05:20.800Z,97542.89
2019-04-07T23:07:50.155Z,97534.23
2019-04-07T23:10:19.757Z,97537.69
2019-04-07T23:12:48.708Z,97537.70
2019-04-07T23:15:17.525Z,97536.81
2019-04-07T23:17:47.216Z,97535.97
2019-04-07T23:20:17.083Z,97528.17
2019-04-07T23:22:46.665Z,97529.46
2019-04-07T23:25:15.963Z,97526.41
2019-04-07T23:27:45.505Z,97520.78
2019-04-07T23:30:17.342Z,97521.66
2019-04-07T23:32:46.073Z,97514.73
2019-04-07T23:35:14.779Z,97513.44
2019-04-07T23:37:43.504Z,97508.23
2019-04-07T23:40:12.314Z,97507.36
2019-04-07T23:42:41.085Z,97505.23
2019-04-07T23:45:14.433Z,97504.76
2019-04-07T23:47:43.408Z,97493.94
2019-04-07T23:50:12.817Z,97490.49
2019-04-07T23:52:41.535Z,97488.32
2019-04-07T23:55:13.392Z,97490.05
2019-04-07T23:57:42.392Z,97490.48
